Time;durP1;ratioP1;P1;durP2;ratioP2;P2;SDS_P1;SDS_P2;PMS_P1;PMS_P2;Temp;Humidity;BMP_temperature;BMP_pressure;BME280_temperature;BME280_humidity;BME280_pressure;Samples;Min_cycle;Max_cycle;Signal;HPM_P1;HPM_P2
2022/01/03 00:00:09;;;;;;;6.93;1.98;;;9.30;99.90;;;;;;5025792;28;20025;-75
2022/01/03 00:02:35;;;;;;;8.25;2.08;;;9.40;99.90;;;;;;5027435;28;20034;-74
2022/01/03 00:05:01;;;;;;;4.05;2.40;;;9.30;99.90;;;;;;5025426;28;20119;-75
2022/01/03 00:07:28;;;;;;;50.00;4.25;;;9.40;99.90;;;;;;5026699;28;20030;-75
2022/01/03 00:09:57;;;;;;;8.75;2.00;;;9.40;99.90;;;;;;5027505;28;20025;-78
2022/01/03 00:12:24;;;;;;;6.85;2.88;;;9.40;99.90;;;;;;5027353;28;20049;-77
2022/01/03 00:14:59;;;;;;;5.38;2.55;;;9.40;99.90;;;;;;5025717;28;20083;-75
2022/01/03 00:17:25;;;;;;;4.05;2.20;;;9.40;99.90;;;;;;5027143;28;20045;-76
2022/01/03 00:19:50;;;;;;;6.60;2.55;;;9.40;99.90;;;;;;5026596;28;20032;-73
2022/01/03 00:22:24;;;;;;;4.75;1.13;;;9.30;99.90;;;;;;5024665;28;20030;-74
2022/01/03 00:25:04;;;;;;;2.08;0.90;;;9.30;99.90;;;;;;5026759;28;20041;-73
2022/01/03 00:27:47;;;;;;;3.10;0.90;;;9.20;99.90;;;;;;5026586;28;20120;-73
2022/01/03 00:30:15;;;;;;;0.70;0.35;;;9.00;99.90;;;;;;5026763;28;20026;-71
2022/01/03 00:32:43;;;;;;;1.75;0.35;;;8.90;99.90;;;;;;5026795;28;20018;-75
2022/01/03 00:35:09;;;;;;;0.10;0.10;;;8.80;99.90;;;;;;5025206;28;20107;-74
2022/01/03 00:37:37;;;;;;;0.73;0.30;;;8.70;99.90;;;;;;5025452;28;20030;-74
2022/01/03 00:40:03;;;;;;;1.00;0.50;;;8.70;99.90;;;;;;5026527;28;20022;-76
2022/01/03 00:42:32;;;;;;;3.25;0.45;;;8.60;99.90;;;;;;5024814;28;20053;-74
2022/01/03 00:44:59;;;;;;;0.60;0.55;;;8.60;99.90;;;;;;5025489;28;20046;-74
2022/01/03 00:47:32;;;;;;;1.05;0.47;;;8.50;99.90;;;;;;5026580;28;20030;-75
2022/01/03 00:49:58;;;;;;;0.95;0.70;;;8.50;99.90;;;;;;5026419;28;20034;-76
2022/01/03 00:52:24;;;;;;;0.47;0.40;;;8.40;99.90;;;;;;5026652;28;20037;-74
2022/01/03 00:54:50;;;;;;;1.00;0.50;;;8.40;99.90;;;;;;5025342;28;20026;-75
2022/01/03 00:57:42;;;;;;;0.82;0.60;;;8.40;99.90;;;;;;5025873;28;20144;-77
2022/01/03 01:00:09;;;;;;;6.80;0.40;;;8.20;99.90;;;;;;5026403;28;20470;-76
2022/01/03 01:02:37;;;;;;;0.57;0.55;;;8.30;99.90;;;;;;5025778;28;20041;-76
2022/01/03 01:05:04;;;;;;;2.63;0.45;;;8.30;99.90;;;;;;5020737;28;20077;-76
2022/01/03 01:07:37;;;;;;;1.52;0.35;;;8.20;99.90;;;;;;5024898;28;20026;-75
2022/01/03 01:10:05;;;;;;;0.45;0.30;;;8.20;99.90;;;;;;5026200;28;20090;-79
2022/01/03 01:12:31;;;;;;;0.43;0.30;;;8.20;99.90;;;;;;5026313;28;20018;-78
2022/01/03 01:14:58;;;;;;;0.40;0.17;;;8.10;99.90;;;;;;5026087;28;20501;-76
2022/01/03 01:17:27;;;;;;;0.35;0.20;;;8.20;99.90;;;;;;5025483;28;20046;-75
2022/01/03 01:19:54;;;;;;;2.20;0.25;;;8.10;99.90;;;;;;5026304;28;20022;-78
2022/01/03 01:22:20;;;;;;;1.85;0.95;;;8.10;99.90;;;;;;5024512;28;20029;-78
2022/01/03 01:24:58;;;;;;;2.03;0.90;;;8.10;99.90;;;;;;5025353;28;20563;-76
2022/01/03 01:30:10;;;;;;;;;;;8.00;99.90;;;;;;5026048;28;20061;-78
2022/01/03 01:32:38;;;;;;;0.20;0.13;;;8.00;99.90;;;;;;5025724;28;19905;-77
2022/01/03 01:35:04;;;;;;;6.03;0.63;;;7.90;99.90;;;;;;5025810;28;20022;-76
2022/01/03 01:37:31;;;;;;;0.90;0.28;;;7.90;99.90;;;;;;5025330;28;20087;-76
2022/01/03 01:39:58;;;;;;;0.43;0.38;;;7.90;99.90;;;;;;5024397;28;20022;-76
2022/01/03 01:42:24;;;;;;;3.78;0.30;;;7.90;99.90;;;;;;5024436;28;20033;-79
2022/01/03 01:44:59;;;;;;;0.20;0.15;;;7.90;99.90;;;;;;5024216;28;20041;-77
2022/01/03 01:47:27;;;;;;;1.00;0.28;;;7.80;99.90;;;;;;5025620;28;20026;-80
2022/01/03 01:49:55;;;;;;;1.40;0.55;;;7.90;99.90;;;;;;5024432;28;20042;-77
2022/01/03 01:52:25;;;;;;;0.82;0.63;;;7.80;99.90;;;;;;5023805;28;20030;-76
2022/01/03 01:54:57;;;;;;;3.40;0.20;;;7.80;99.90;;;;;;5025546;28;20025;-75
2022/01/03 01:57:55;;;;;;;0.95;0.40;;;7.80;99.90;;;;;;5024275;28;20030;-77
2022/01/03 02:00:21;;;;;;;2.38;0.88;;;7.90;99.90;;;;;;5012015;28;20044;-75
2022/01/03 02:02:53;;;;;;;0.57;0.40;;;7.80;99.90;;;;;;5025218;28;20053;-77
2022/01/03 02:05:33;;;;;;;2.55;1.10;;;7.80;99.90;;;;;;5023697;28;20052;-75
2022/01/03 02:08:08;;;;;;;1.48;0.60;;;7.90;99.90;;;;;;5025028;28;20059;-80
2022/01/03 02:10:41;;;;;;;2.30;0.98;;;7.90;99.90;;;;;;5023909;28;20038;-76
2022/01/03 02:13:08;;;;;;;4.65;0.98;;;7.90;99.90;;;;;;5023579;28;20029;-76
2022/01/03 02:15:36;;;;;;;1.17;0.65;;;7.90;99.90;;;;;;5024705;28;20036;-76
2022/01/03 02:18:03;;;;;;;7.35;0.63;;;8.00;99.90;;;;;;5024762;28;20068;-76
2022/01/03 02:20:30;;;;;;;14.23;0.98;;;8.00;99.90;;;;;;5024407;28;20033;-78
2022/01/03 02:22:58;;;;;;;7.07;1.92;;;8.00;99.90;;;;;;5023787;28;20045;-77
2022/01/03 02:25:28;;;;;;;4.30;1.60;;;8.10;99.90;;;;;;5024971;28;20038;-76
2022/01/03 02:27:55;;;;;;;9.55;1.85;;;8.10;99.90;;;;;;5022382;28;20030;-74
2022/01/03 02:30:32;;;;;;;2.78;1.30;;;8.10;99.90;;;;;;5022651;28;20026;-75
2022/01/03 02:32:58;;;;;;;5.57;2.28;;;8.10;99.90;;;;;;5023646;28;20034;-77
2022/01/03 02:35:26;;;;;;;5.72;1.20;;;8.10;99.90;;;;;;5024895;28;20030;-78
2022/01/03 02:37:54;;;;;;;6.63;1.30;;;8.20;99.90;;;;;;5023725;28;20113;-76
2022/01/03 02:40:21;;;;;;;9.07;1.63;;;8.20;99.90;;;;;;5023405;28;20037;-76
2022/01/03 02:42:48;;;;;;;1.15;0.80;;;8.20;99.90;;;;;;5024487;28;20026;-77
2022/01/03 02:45:18;;;;;;;6.90;2.03;;;8.20;99.90;;;;;;5024759;28;20385;-76
2022/01/03 02:47:46;;;;;;;3.15;1.17;;;8.30;99.90;;;;;;5024657;28;20034;-78
2022/01/03 02:50:14;;;;;;;5.43;2.08;;;8.30;99.90;;;;;;5024378;28;20080;-77
2022/01/03 02:52:40;;;;;;;6.28;1.58;;;8.30;99.90;;;;;;5023536;28;20033;-77
2022/01/03 02:55:07;;;;;;;10.63;1.48;;;8.30;99.90;;;;;;5023654;28;20034;-78
2022/01/03 02:57:38;;;;;;;8.02;1.67;;;8.30;99.90;;;;;;5024362;28;20044;-76
2022/01/03 03:00:07;;;;;;;6.05;1.73;;;8.40;99.90;;;;;;5023232;28;20080;-77
2022/01/03 03:02:33;;;;;;;8.48;1.65;;;8.40;99.90;;;;;;5023031;28;20489;-78
2022/01/03 03:05:01;;;;;;;1.65;0.90;;;8.40;99.90;;;;;;5023272;28;20279;-77
2022/01/03 03:07:31;;;;;;;13.50;2.45;;;8.40;99.90;;;;;;5023534;28;20031;-76
2022/01/03 03:09:58;;;;;;;5.35;1.42;;;8.40;99.90;;;;;;5022820;28;20022;-79
2022/01/03 03:12:25;;;;;;;7.28;2.05;;;8.40;99.90;;;;;;5023356;28;20029;-77
2022/01/03 03:14:51;;;;;;;1.95;1.00;;;8.50;99.90;;;;;;5023394;28;20033;-75
2022/01/03 03:17:18;;;;;;;9.20;1.80;;;8.50;99.90;;;;;;5022437;28;20137;-75
2022/01/03 03:20:08;;;;;;;9.35;2.05;;;8.50;99.90;;;;;;5024522;28;20056;-74
2022/01/03 03:22:35;;;;;;;7.47;1.83;;;8.50;99.90;;;;;;5023209;28;20034;-77
2022/01/03 03:25:08;;;;;;;3.58;0.82;;;8.60;99.90;;;;;;5023951;28;20042;-76
2022/01/03 03:27:42;;;;;;;9.48;1.88;;;8.50;99.90;;;;;;5024406;28;20026;-77
2022/01/03 03:30:19;;;;;;;15.60;1.45;;;8.50;99.90;;;;;;5022870;28;20030;-79
2022/01/03 03:32:47;;;;;;;16.35;1.27;;;8.60;99.90;;;;;;5023005;28;20026;-80
2022/01/03 03:35:13;;;;;;;18.65;3.17;;;8.60;99.90;;;;;;5022824;28;20040;-79
2022/01/03 03:37:39;;;;;;;9.73;1.98;;;8.60;99.90;;;;;;5024112;28;20037;-78
2022/01/03 03:40:07;;;;;;;17.95;1.80;;;8.60;99.90;;;;;;5024142;28;20026;-80
2022/01/03 03:42:33;;;;;;;9.50;1.60;;;8.60;99.90;;;;;;5026131;28;20093;-76
2022/01/03 03:44:59;;;;;;;2.78;1.27;;;8.60;99.90;;;;;;5027514;28;20050;-76
2022/01/03 03:47:27;;;;;;;9.07;1.83;;;8.60;99.90;;;;;;5026467;28;20029;-80
2022/01/03 03:49:52;;;;;;;8.27;1.45;;;8.70;99.90;;;;;;5026630;28;20034;-80
2022/01/03 03:52:18;;;;;;;5.30;1.77;;;8.60;99.90;;;;;;5027268;28;20022;-77
2022/01/03 03:54:43;;;;;;;9.57;2.05;;;8.70;99.90;;;;;;5026089;28;20026;-76
2022/01/03 03:57:09;;;;;;;13.27;1.98;;;8.70;99.90;;;;;;5027460;28;20029;-78
2022/01/03 03:59:36;;;;;;;9.15;1.25;;;8.70;99.90;;;;;;5025677;28;20034;-77
2022/01/03 04:02:02;;;;;;;5.70;1.50;;;8.70;99.90;;;;;;5026220;28;20033;-76
2022/01/03 04:04:28;;;;;;;15.00;2.25;;;8.70;99.90;;;;;;5026083;28;20061;-77
2022/01/03 04:07:02;;;;;;;10.93;1.77;;;8.80;99.90;;;;;;5026970;28;20034;-77
2022/01/03 04:09:28;;;;;;;6.75;1.67;;;8.80;99.90;;;;;;5026164;28;20093;-77
2022/01/03 04:11:54;;;;;;;5.38;1.45;;;8.80;99.90;;;;;;5027109;28;20026;-79
2022/01/03 04:14:20;;;;;;;2.13;1.50;;;8.80;99.90;;;;;;5025970;28;20764;-77
2022/01/03 04:16:45;;;;;;;4.22;1.75;;;8.80;99.90;;;;;;5025389;28;20026;-76
2022/01/03 04:19:11;;;;;;;9.43;1.58;;;8.80;99.90;;;;;;5026806;28;20037;-78
2022/01/03 04:21:39;;;;;;;9.25;2.47;;;8.80;99.90;;;;;;5026954;28;20030;-75
2022/01/03 04:24:07;;;;;;;19.35;2.33;;;8.80;99.90;;;;;;5025535;28;20034;-79
2022/01/03 04:26:33;;;;;;;9.90;2.47;;;8.80;99.90;;;;;;5025157;28;20398;-77
2022/01/03 04:28:58;;;;;;;14.07;2.75;;;8.80;99.90;;;;;;5026900;28;20029;-76
2022/01/03 04:31:24;;;;;;;8.27;1.63;;;9.00;99.90;;;;;;5027003;28;20022;-78
2022/01/03 04:33:50;;;;;;;14.32;2.20;;;8.80;99.90;;;;;;5026346;28;20030;-77
2022/01/03 04:36:15;;;;;;;11.15;2.80;;;8.90;99.90;;;;;;5026795;28;20030;-77
2022/01/03 04:38:41;;;;;;;6.32;2.08;;;8.90;99.90;;;;;;5026827;28;20044;-75
2022/01/03 04:41:09;;;;;;;20.88;2.70;;;8.90;99.90;;;;;;5025360;28;20045;-77
2022/01/03 04:43:35;;;;;;;13.10;3.10;;;8.80;99.90;;;;;;5026623;28;20030;-77
2022/01/03 04:46:02;;;;;;;30.80;3.58;;;8.80;99.90;;;;;;5026471;28;20033;-76
2022/01/03 04:48:28;;;;;;;7.35;2.50;;;8.80;99.90;;;;;;5026458;28;20092;-79
2022/01/03 04:50:53;;;;;;;12.50;2.22;;;8.80;99.90;;;;;;5026675;28;20541;-76
2022/01/03 04:53:25;;;;;;;19.67;2.92;;;8.80;99.90;;;;;;5024447;28;20037;-75
2022/01/03 04:55:51;;;;;;;12.13;2.15;;;8.80;99.90;;;;;;5026372;28;20512;-75
2022/01/03 04:58:17;;;;;;;4.55;2.80;;;8.80;99.90;;;;;;5024888;28;20080;-77
2022/01/03 05:00:43;;;;;;;8.40;2.92;;;8.80;99.90;;;;;;5025921;28;20026;-76
2022/01/03 05:03:09;;;;;;;14.50;2.75;;;8.90;99.90;;;;;;5024995;28;20033;-76
2022/01/03 05:05:35;;;;;;;10.35;2.45;;;8.90;99.90;;;;;;5026074;28;20038;-76
2022/01/03 05:08:00;;;;;;;8.80;1.83;;;8.80;99.90;;;;;;5024580;28;20033;-77
2022/01/03 05:10:26;;;;;;;14.15;2.40;;;8.80;99.90;;;;;;5026344;28;20033;-78
2022/01/03 05:12:52;;;;;;;9.85;3.25;;;8.80;99.90;;;;;;5026190;28;20056;-74
2022/01/03 05:15:17;;;;;;;17.08;1.95;;;8.90;99.90;;;;;;5024451;28;20048;-77
2022/01/03 05:17:46;;;;;;;14.95;2.42;;;8.80;99.90;;;;;;5024356;28;20048;-75
2022/01/03 05:20:12;;;;;;;9.77;1.50;;;8.90;99.90;;;;;;5024698;28;20033;-75
2022/01/03 05:22:38;;;;;;;24.52;3.15;;;8.90;99.90;;;;;;5025763;28;20045;-75
2022/01/03 05:25:05;;;;;;;13.85;2.88;;;8.90;99.90;;;;;;5024501;28;20042;-75
2022/01/03 05:27:30;;;;;;;2.42;1.17;;;8.90;99.90;;;;;;5025603;28;20031;-75
2022/01/03 05:29:56;;;;;;;16.48;2.20;;;8.90;99.90;;;;;;5024448;28;20126;-75
2022/01/03 05:32:22;;;;;;;4.60;1.95;;;8.90;99.90;;;;;;5024736;28;20036;-75
2022/01/03 05:34:48;;;;;;;8.25;3.20;;;8.90;99.90;;;;;;5024403;28;20018;-76
2022/01/03 05:37:17;;;;;;;11.68;1.70;;;8.90;99.90;;;;;;5025170;28;20029;-76
2022/01/03 05:39:42;;;;;;;8.27;1.67;;;8.90;99.90;;;;;;5024312;28;20030;-77
2022/01/03 05:42:08;;;;;;;11.35;2.35;;;8.90;99.90;;;;;;5023844;28;20121;-77
2022/01/03 05:44:34;;;;;;;6.82;2.22;;;8.90;99.90;;;;;;5025443;28;20042;-75
2022/01/03 05:46:59;;;;;;;26.63;2.17;;;8.90;99.90;;;;;;5025715;28;20076;-77
2022/01/03 05:49:26;;;;;;;18.40;2.67;;;8.90;99.90;;;;;;5025453;28;20080;-78
2022/01/03 05:51:52;;;;;;;16.42;1.85;;;9.00;99.90;;;;;;5024379;28;20029;-78
2022/01/03 05:54:17;;;;;;;12.88;2.10;;;8.90;99.90;;;;;;5025338;28;20086;-76
2022/01/03 05:56:49;;;;;;;12.18;1.48;;;9.00;99.90;;;;;;5023823;28;20029;-80
2022/01/03 05:59:15;;;;;;;5.10;1.85;;;9.00;99.90;;;;;;5025367;28;20106;-77
2022/01/03 06:01:41;;;;;;;18.02;1.95;;;9.00;99.90;;;;;;5025296;28;20026;-76
2022/01/03 06:04:21;;;;;;;19.40;2.10;;;9.00;99.90;;;;;;5022813;28;20028;-76
2022/01/03 06:06:59;;;;;;;10.10;2.35;;;9.00;99.90;;;;;;5025434;28;20026;-75
2022/01/03 06:09:25;;;;;;;13.93;2.25;;;9.00;99.90;;;;;;5025475;28;20057;-78
2022/01/03 06:11:52;;;;;;;20.30;2.72;;;9.00;99.90;;;;;;5024770;28;20081;-77
2022/01/03 06:14:19;;;;;;;7.70;2.10;;;9.00;99.90;;;;;;5023900;28;20108;-76
2022/01/03 06:16:46;;;;;;;22.05;2.38;;;9.00;99.90;;;;;;5024540;28;20022;-76
2022/01/03 06:19:12;;;;;;;18.85;2.88;;;9.00;99.90;;;;;;5023320;28;20049;-75
2022/01/03 06:21:45;;;;;;;9.25;3.05;;;9.00;99.90;;;;;;5022961;28;20458;-78
2022/01/03 06:24:13;;;;;;;6.82;2.05;;;9.00;99.90;;;;;;5024776;28;20042;-76
2022/01/03 06:26:42;;;;;;;10.63;3.15;;;9.00;99.90;;;;;;5024373;28;20041;-74
2022/01/03 06:29:10;;;;;;;2.15;1.55;;;9.00;99.90;;;;;;5023740;28;20030;-76
2022/01/03 06:31:35;;;;;;;10.20;2.47;;;8.90;99.90;;;;;;5023359;28;20041;-79
2022/01/03 06:34:04;;;;;;;18.02;3.15;;;8.90;99.90;;;;;;5024992;28;20030;-80
2022/01/03 06:36:30;;;;;;;12.00;2.40;;;8.80;99.90;;;;;;5024284;28;20056;-78
2022/01/03 06:38:57;;;;;;;10.60;1.55;;;8.80;99.90;;;;;;5023614;28;20097;-78
2022/01/03 06:41:25;;;;;;;15.93;3.00;;;8.80;99.90;;;;;;5025028;28;20038;-78
2022/01/03 06:43:50;;;;;;;14.73;2.88;;;8.70;99.90;;;;;;5022673;28;20476;-77
2022/01/03 06:46:16;;;;;;;13.48;2.60;;;8.80;99.90;;;;;;5023015;28;20416;-77
2022/01/03 06:48:43;;;;;;;7.13;2.25;;;8.70;99.90;;;;;;5024733;28;20034;-77
2022/01/03 06:51:09;;;;;;;7.20;1.50;;;8.70;99.90;;;;;;5024824;28;20022;-77
2022/01/03 06:53:35;;;;;;;10.30;2.25;;;8.70;99.90;;;;;;5024245;28;20022;-74
2022/01/03 06:56:01;;;;;;;22.63;2.88;;;8.70;99.90;;;;;;5024655;28;20101;-77
2022/01/03 06:58:26;;;;;;;18.40;1.75;;;8.70;99.90;;;;;;5023726;28;20052;-77
2022/01/03 07:00:52;;;;;;;12.65;2.15;;;8.70;99.90;;;;;;5022988;28;20117;-76
2022/01/03 07:03:17;;;;;;;12.35;2.90;;;8.70;99.90;;;;;;5023228;28;20695;-76
2022/01/03 07:05:43;;;;;;;10.25;2.80;;;8.70;99.90;;;;;;5023162;28;20041;-78
2022/01/03 07:08:09;;;;;;;12.57;2.58;;;8.70;99.90;;;;;;5022903;28;20022;-77
2022/01/03 07:10:34;;;;;;;11.82;4.13;;;8.70;99.90;;;;;;5024408;28;20034;-76
2022/01/03 07:13:01;;;;;;;12.27;2.28;;;8.70;99.90;;;;;;5023093;28;20662;-76
2022/01/03 07:20:59;;;;;;;15.60;2.88;;;8.70;99.90;;;;;;5026543;28;20056;-79
2022/01/03 07:23:25;;;;;;;9.15;1.70;;;8.70;99.90;;;;;;5026775;28;20049;-77
2022/01/03 07:25:51;;;;;;;8.68;3.00;;;8.70;99.90;;;;;;5024601;28;20149;-79
2022/01/03 07:28:18;;;;;;;17.02;2.35;;;8.70;99.90;;;;;;5021008;28;20385;-78
2022/01/03 07:30:44;;;;;;;9.57;1.92;;;8.70;99.90;;;;;;5013916;28;20022;-78
2022/01/03 07:33:10;;;;;;;13.70;1.73;;;8.70;99.90;;;;;;5043030;28;20053;-78
2022/01/03 07:35:36;;;;;;;11.57;2.40;;;8.70;99.90;;;;;;5020897;28;20029;-78
2022/01/03 07:38:03;;;;;;;16.23;1.73;;;8.70;99.90;;;;;;5019776;28;20034;-76
2022/01/03 07:40:29;;;;;;;12.43;2.40;;;8.80;99.90;;;;;;5026072;28;20042;-77
2022/01/03 07:42:56;;;;;;;7.22;2.35;;;8.80;99.90;;;;;;5027582;28;20032;-76
2022/01/03 07:45:22;;;;;;;8.50;2.72;;;8.80;99.90;;;;;;5026927;28;20096;-76
2022/01/03 07:47:54;;;;;;;6.10;1.42;;;8.80;99.90;;;;;;5026484;28;20034;-78
2022/01/03 07:50:20;;;;;;;16.20;3.05;;;8.80;99.90;;;;;;5026140;28;20026;-76
2022/01/03 07:52:46;;;;;;;7.78;1.80;;;8.80;99.90;;;;;;5027575;28;20538;-74
2022/01/03 07:55:13;;;;;;;23.25;3.65;;;8.80;99.90;;;;;;5027606;28;20074;-77
2022/01/03 07:57:39;;;;;;;8.05;2.22;;;8.80;99.90;;;;;;5020930;28;20053;-75
2022/01/03 08:00:08;;;;;;;14.40;2.40;;;8.90;99.90;;;;;;5010816;28;20126;-77
2022/01/03 08:02:33;;;;;;;12.95;2.35;;;8.80;99.90;;;;;;5014967;28;20030;-78
2022/01/03 08:04:59;;;;;;;25.08;1.90;;;8.90;99.90;;;;;;5025710;28;20073;-78
2022/01/03 08:07:25;;;;;;;5.47;2.15;;;8.90;99.90;;;;;;5027535;28;20022;-80
2022/01/03 08:09:51;;;;;;;14.75;2.70;;;8.90;99.90;;;;;;5026693;28;20022;-79
2022/01/03 08:12:18;;;;;;;13.55;1.35;;;8.90;99.90;;;;;;5025714;28;20029;-79
2022/01/03 08:14:44;;;;;;;17.80;2.85;;;8.90;99.90;;;;;;5026027;28;20053;-76
2022/01/03 08:17:09;;;;;;;14.90;2.70;;;8.90;99.90;;;;;;5025180;28;20046;-78
2022/01/03 08:19:35;;;;;;;6.15;1.75;;;9.00;99.90;;;;;;5025587;28;20050;-78
2022/01/03 08:22:02;;;;;;;11.02;3.08;;;9.00;99.90;;;;;;5027277;28;20032;-77
2022/01/03 08:24:27;;;;;;;13.55;2.28;;;9.00;99.90;;;;;;5026941;28;20046;-78
2022/01/03 08:26:54;;;;;;;16.08;2.10;;;9.00;99.90;;;;;;5024195;28;20038;-76
2022/01/03 08:29:20;;;;;;;25.52;3.08;;;9.00;99.90;;;;;;5025930;28;20403;-78
2022/01/03 08:31:46;;;;;;;20.55;3.03;;;9.00;99.90;;;;;;5024971;28;20037;-77
2022/01/03 08:34:11;;;;;;;10.55;2.28;;;9.00;99.90;;;;;;5025246;28;20026;-75
2022/01/03 08:36:37;;;;;;;16.65;2.63;;;9.00;99.90;;;;;;5025008;28;20034;-78
2022/01/03 08:39:03;;;;;;;11.43;2.33;;;9.10;99.90;;;;;;5024605;28;20034;-78
2022/01/03 08:41:28;;;;;;;21.10;2.58;;;9.10;99.90;;;;;;5025367;28;20029;-78
2022/01/03 08:43:54;;;;;;;17.52;2.88;;;9.20;99.90;;;;;;5026502;28;20076;-76
2022/01/03 08:46:20;;;;;;;11.23;2.13;;;9.20;99.90;;;;;;5024881;28;20033;-79
2022/01/03 08:48:46;;;;;;;12.75;4.20;;;9.20;99.90;;;;;;5025091;28;20037;-76
2022/01/03 08:51:11;;;;;;;5.07;1.92;;;9.20;99.90;;;;;;5026490;28;20036;-80
2022/01/03 08:53:37;;;;;;;6.32;1.45;;;9.20;99.90;;;;;;5024743;28;20101;-79
2022/01/03 08:56:04;;;;;;;13.00;2.58;;;9.30;99.90;;;;;;5026499;28;20022;-75
2022/01/03 08:58:29;;;;;;;30.92;3.65;;;9.30;99.90;;;;;;5023574;28;20030;-76
2022/01/03 09:00:56;;;;;;;15.73;2.15;;;9.30;99.90;;;;;;5027739;28;20073;-78
2022/01/03 09:03:31;;;;;;;24.38;3.95;;;9.30;99.90;;;;;;5006530;28;20169;-79
2022/01/03 09:05:58;;;;;;;23.25;2.15;;;9.30;99.90;;;;;;5018056;28;20037;-76
2022/01/03 09:08:24;;;;;;;19.45;2.60;;;9.30;99.90;;;;;;5026274;28;20022;-75
2022/01/03 09:10:51;;;;;;;17.20;2.25;;;9.30;99.90;;;;;;5033656;28;20057;-76
2022/01/03 09:13:17;;;;;;;13.48;3.50;;;9.20;99.90;;;;;;5029024;28;20026;-79
2022/01/03 09:15:46;;;;;;;30.98;2.95;;;9.30;99.90;;;;;;5024176;28;20026;-74
2022/01/03 09:18:13;;;;;;;9.20;2.40;;;9.30;99.90;;;;;;5024830;28;20061;-77
2022/01/03 09:20:39;;;;;;;10.40;2.00;;;9.30;99.90;;;;;;5023954;28;20030;-75
2022/01/03 09:23:11;;;;;;;15.18;2.90;;;9.30;99.90;;;;;;5024526;28;20030;-76
2022/01/03 09:30:52;;;;;;;7.53;2.00;;;9.30;99.90;;;;;;5022371;28;20048;-76
2022/01/03 09:33:18;;;;;;;15.45;2.80;;;9.30;99.90;;;;;;5025413;28;20022;-78
2022/01/03 09:35:45;;;;;;;16.17;2.67;;;9.30;99.90;;;;;;5024936;28;20441;-77
2022/01/03 09:38:11;;;;;;;23.52;2.88;;;9.30;99.90;;;;;;5012412;28;20030;-76
2022/01/03 09:40:52;;;;;;;16.48;2.67;;;9.30;99.90;;;;;;5031861;28;20053;-78
2022/01/03 09:43:19;;;;;;;15.30;1.80;;;9.40;99.90;;;;;;5020863;28;20038;-75
2022/01/03 09:45:47;;;;;;;18.67;2.58;;;9.40;99.90;;;;;;5018864;28;20030;-75
2022/01/03 09:48:14;;;;;;;8.27;2.22;;;9.40;99.90;;;;;;5020252;28;20030;-75
2022/01/03 09:50:47;;;;;;;3.92;2.13;;;9.50;99.90;;;;;;5023784;28;20028;-78
2022/01/03 09:53:13;;;;;;;14.40;3.03;;;9.50;99.90;;;;;;5023469;28;20049;-79
2022/01/03 09:55:40;;;;;;;11.52;2.90;;;9.60;99.90;;;;;;5023394;28;20029;-76
2022/01/03 09:58:06;;;;;;;15.20;3.38;;;9.60;99.90;;;;;;5023770;28;20026;-77
2022/01/03 10:00:39;;;;;;;11.40;2.22;;;9.60;99.90;;;;;;5024720;28;20423;-78
2022/01/03 10:03:05;;;;;;;11.77;1.67;;;9.70;99.90;;;;;;5024101;28;20029;-78
2022/01/03 10:05:33;;;;;;;14.95;2.55;;;9.70;99.90;;;;;;5023277;28;20041;-75
2022/01/03 10:07:59;;;;;;;26.77;4.47;;;9.90;99.90;;;;;;5017974;28;20109;-75
2022/01/03 10:10:28;;;;;;;6.85;2.20;;;9.90;99.90;;;;;;5021324;28;20033;-75
2022/01/03 10:12:54;;;;;;;26.08;3.17;;;9.90;99.90;;;;;;5008281;28;20329;-78
2022/01/03 10:15:19;;;;;;;15.93;3.25;;;9.90;99.90;;;;;;5013200;28;21393;-76
2022/01/03 10:17:47;;;;;;;14.02;1.85;;;10.10;99.90;;;;;;5018894;28;20069;-75
2022/01/03 10:20:16;;;;;;;5.07;1.98;;;10.30;99.90;;;;;;5020060;28;20036;-75
2022/01/03 10:22:45;;;;;;;11.88;1.35;;;10.30;99.90;;;;;;5018641;28;20022;-76
2022/01/03 10:25:11;;;;;;;19.23;2.72;;;10.50;99.90;;;;;;5016000;28;20053;-75
2022/01/03 10:27:50;;;;;;;13.85;2.22;;;10.60;99.90;;;;;;5010625;28;20030;-74
2022/01/03 10:30:45;;;;;;;5.82;2.55;;;10.70;99.90;;;;;;5015196;28;20033;-77
2022/01/03 10:33:21;;;;;;;7.82;1.98;;;10.80;99.90;;;;;;5024257;28;20030;-75
2022/01/03 10:35:50;;;;;;;12.93;1.85;;;11.00;99.90;;;;;;5024691;28;20485;-76
2022/01/03 10:38:37;;;;;;;18.30;2.17;;;10.90;99.90;;;;;;5023504;28;20061;-75
2022/01/03 10:41:11;;;;;;;7.63;1.48;;;10.80;99.90;;;;;;5023421;28;20033;-75
2022/01/03 10:43:37;;;;;;;17.58;2.35;;;10.70;99.90;;;;;;5024403;28;20030;-75
2022/01/03 10:46:30;;;;;;;8.18;1.70;;;10.60;99.90;;;;;;5024388;28;20102;-77
2022/01/03 10:49:20;;;;;;;7.35;2.53;;;10.50;99.90;;;;;;5024010;28;20030;-78
2022/01/03 10:52:20;;;;;;;7.25;1.88;;;10.50;99.90;;;;;;5024834;28;20030;-78
2022/01/03 10:55:12;;;;;;;5.88;1.63;;;10.50;99.90;;;;;;5024958;28;20030;-74
2022/01/03 10:57:53;;;;;;;10.32;1.52;;;10.40;99.90;;;;;;5017318;28;20034;-75
2022/01/03 11:00:20;;;;;;;5.85;1.77;;;10.40;99.90;;;;;;5026059;28;20030;-75
2022/01/03 11:03:08;;;;;;;11.82;2.15;;;10.30;99.90;;;;;;5027812;28;21136;-76
2022/01/03 11:05:49;;;;;;;10.73;2.05;;;10.30;99.90;;;;;;5027366;28;20060;-75
2022/01/03 11:11:02;;;;;;;12.95;2.03;;;10.30;99.90;;;;;;5027628;28;20037;-76
2022/01/03 11:13:28;;;;;;;10.85;1.65;;;10.30;99.90;;;;;;5027184;28;20029;-75
2022/01/03 11:16:05;;;;;;;11.13;2.70;;;10.30;99.90;;;;;;5028027;28;20058;-75
2022/01/03 11:18:37;;;;;;;3.85;1.45;;;10.30;99.90;;;;;;5027078;28;20104;-76
2022/01/03 11:21:11;;;;;;;6.30;1.88;;;10.20;99.90;;;;;;5024561;28;20474;-77
2022/01/03 11:24:01;;;;;;;14.02;1.85;;;10.20;99.90;;;;;;5027415;28;20105;-78
2022/01/03 11:26:30;;;;;;;13.73;2.53;;;10.20;99.90;;;;;;5015819;28;20046;-75
2022/01/03 11:28:57;;;;;;;21.27;2.55;;;10.20;99.90;;;;;;5027520;28;20025;-80
2022/01/03 11:31:24;;;;;;;7.82;1.83;;;10.40;99.90;;;;;;5026074;28;20053;-77
2022/01/03 11:33:51;;;;;;;18.70;2.40;;;10.30;99.90;;;;;;5026059;28;20021;-76
2022/01/03 11:36:18;;;;;;;11.80;2.25;;;10.20;99.90;;;;;;5026622;28;20034;-79
2022/01/03 11:38:45;;;;;;;17.20;2.33;;;10.00;99.90;;;;;;5023092;28;20027;-74
2022/01/03 11:41:11;;;;;;;6.57;1.27;;;9.70;99.90;;;;;;5027956;28;20037;-75
2022/01/03 11:43:38;;;;;;;10.60;1.92;;;9.40;99.90;;;;;;5026976;28;20082;-78
2022/01/03 11:46:05;;;;;;;5.97;2.33;;;9.70;99.90;;;;;;5044242;28;20041;-79
2022/01/03 11:48:31;;;;;;;16.25;2.30;;;10.10;99.90;;;;;;5029550;28;20048;-77
2022/01/03 11:51:04;;;;;;;9.60;2.97;;;10.60;99.90;;;;;;5027711;28;20036;-78
2022/01/03 11:53:34;;;;;;;10.55;2.50;;;10.90;99.90;;;;;;5026532;28;20028;-77
2022/01/03 11:56:06;;;;;;;9.85;3.05;;;10.80;99.90;;;;;;5026144;28;20097;-76
2022/01/03 11:58:57;;;;;;;7.25;2.30;;;10.60;99.90;;;;;;5027322;28;20498;-77
2022/01/03 12:04:19;;;;;;;11.23;3.55;;;10.20;99.90;;;;;;5027069;28;20040;-76
2022/01/03 12:06:45;;;;;;;10.35;2.67;;;10.00;99.90;;;;;;5026701;28;20037;-76
2022/01/03 12:09:18;;;;;;;14.43;2.50;;;9.90;99.90;;;;;;5026308;28;20037;-75
2022/01/03 12:11:52;;;;;;;11.37;2.57;;;9.80;99.90;;;;;;5026867;28;20072;-76
2022/01/03 12:14:19;;;;;;;9.93;2.47;;;9.70;99.90;;;;;;5025283;28;20069;-78
2022/01/03 12:16:51;;;;;;;16.65;3.00;;;9.60;99.90;;;;;;5026250;28;20021;-77
2022/01/03 12:19:28;;;;;;;22.85;3.30;;;9.60;99.90;;;;;;5025218;28;20041;-80
2022/01/03 12:22:06;;;;;;;13.00;3.05;;;9.60;99.90;;;;;;5026023;28;20037;-78
2022/01/03 12:24:43;;;;;;;22.73;2.65;;;9.70;99.90;;;;;;5024867;28;20057;-79
2022/01/03 12:27:14;;;;;;;11.32;1.85;;;10.00;99.90;;;;;;5023620;28;20121;-77
2022/01/03 12:30:07;;;;;;;2.97;1.77;;;10.20;99.90;;;;;;5005863;28;20022;-76
2022/01/03 12:32:37;;;;;;;10.40;3.00;;;10.30;99.90;;;;;;4998229;28;20118;-75
2022/01/03 12:35:10;;;;;;;7.72;2.55;;;10.30;99.90;;;;;;5006077;28;20058;-74
2022/01/03 12:37:42;;;;;;;10.60;2.20;;;10.30;99.90;;;;;;5012074;28;20066;-75
2022/01/03 12:40:09;;;;;;;7.55;3.03;;;10.30;99.90;;;;;;5016336;28;20030;-77
2022/01/03 12:42:51;;;;;;;10.68;2.38;;;10.10;99.90;;;;;;5023394;28;20026;-76
2022/01/03 12:45:30;;;;;;;11.57;2.67;;;10.00;99.90;;;;;;5025655;28;20037;-74
2022/01/03 12:48:11;;;;;;;13.75;2.80;;;9.90;99.90;;;;;;5005810;28;20435;-73
2022/01/03 12:50:41;;;;;;;8.00;1.48;;;9.90;99.90;;;;;;5022497;28;20034;-76
2022/01/03 12:53:10;;;;;;;2.95;1.40;;;9.90;99.90;;;;;;5020369;28;20343;-75
2022/01/03 12:55:48;;;;;;;6.85;1.77;;;9.90;99.90;;;;;;5016976;28;20037;-75
2022/01/03 12:58:14;;;;;;;15.10;2.00;;;9.80;99.90;;;;;;5026198;28;20398;-75
2022/01/03 13:00:40;;;;;;;2.22;1.70;;;9.80;99.90;;;;;;5025621;28;20022;-73
2022/01/03 13:03:22;;;;;;;11.05;2.50;;;9.80;99.90;;;;;;5024845;28;20034;-74
2022/01/03 13:06:13;;;;;;;5.97;2.10;;;9.80;99.90;;;;;;5024856;28;20037;-74
2022/01/03 13:08:42;;;;;;;16.70;1.90;;;9.70;99.90;;;;;;5026489;28;20112;-76
2022/01/03 13:11:14;;;;;;;6.45;1.15;;;9.70;99.90;;;;;;5025640;28;20029;-73
2022/01/03 13:13:41;;;;;;;8.48;1.85;;;9.70;99.90;;;;;;5025975;28;20082;-74
2022/01/03 13:16:19;;;;;;;13.60;1.92;;;9.70;99.90;;;;;;5024878;28;20030;-73
2022/01/03 13:18:47;;;;;;;8.82;2.42;;;9.70;99.90;;;;;;5024553;28;20089;-75